sensor_id;sensor_type;location;lat;lon;timestamp;P1;durP1;ratioP1;P2;durP2;ratioP2
18259;SDS011;9256;52.236;5.712;2023-05-01T00:00:52;6.20;;;2.03;;
18259;SDS011;9256;52.236;5.712;2023-05-01T00:03:19;5.88;;;2.97;;
18259;SDS011;9256;52.236;5.712;2023-05-01T00:05:46;5.70;;;2.53;;
18259;SDS011;9256;52.236;5.712;2023-05-01T00:08:13;6.63;;;2.28;;
18259;SDS011;9256;52.236;5.712;2023-05-01T00:10:40;8.38;;;2.45;;
18259;SDS011;9256;52.236;5.712;2023-05-01T00:13:07;4.07;;;2.17;;
18259;SDS011;9256;52.236;5.712;2023-05-01T00:15:34;4.68;;;2.35;;
18259;SDS011;9256;52.236;5.712;2023-05-01T00:18:03;9.15;;;2.63;;
18259;SDS011;9256;52.236;5.712;2023-05-01T00:20:30;6.10;;;2.67;;
18259;SDS011;9256;52.236;5.712;2023-05-01T00:22:57;4.93;;;2.47;;
18259;SDS011;9256;52.236;5.712;2023-05-01T00:25:24;5.55;;;2.45;;
18259;SDS011;9256;52.236;5.712;2023-05-01T00:27:51;5.38;;;2.63;;
18259;SDS011;9256;52.236;5.712;2023-05-01T00:30:17;5.22;;;2.33;;
18259;SDS011;9256;52.236;5.712;2023-05-01T00:32:44;7.00;;;2.58;;
18259;SDS011;9256;52.236;5.712;2023-05-01T00:35:13;6.10;;;2.42;;
18259;SDS011;9256;52.236;5.712;2023-05-01T00:37:40;6.35;;;2.50;;
18259;SDS011;9256;52.236;5.712;2023-05-01T00:40:07;6.20;;;2.72;;
18259;SDS011;9256;52.236;5.712;2023-05-01T00:42:35;6.80;;;3.25;;
18259;SDS011;9256;52.236;5.712;2023-05-01T00:45:03;5.05;;;2.78;;
18259;SDS011;9256;52.236;5.712;2023-05-01T00:47:31;4.50;;;2.53;;
18259;SDS011;9256;52.236;5.712;2023-05-01T00:50:00;8.32;;;2.90;;
18259;SDS011;9256;52.236;5.712;2023-05-01T00:52:29;6.97;;;2.80;;
18259;SDS011;9256;52.236;5.712;2023-05-01T00:54:56;6.78;;;2.80;;
18259;SDS011;9256;52.236;5.712;2023-05-01T00:57:24;7.22;;;3.00;;
18259;SDS011;9256;52.236;5.712;2023-05-01T00:59:51;6.28;;;2.70;;
18259;SDS011;9256;52.236;5.712;2023-05-01T01:02:17;6.22;;;2.78;;
18259;SDS011;9256;52.236;5.712;2023-05-01T01:04:45;7.80;;;3.10;;
18259;SDS011;9256;52.236;5.712;2023-05-01T01:07:15;7.22;;;2.97;;
18259;SDS011;9256;52.236;5.712;2023-05-01T01:09:52;7.25;;;3.08;;
18259;SDS011;9256;52.236;5.712;2023-05-01T01:12:29;8.43;;;3.00;;
18259;SDS011;9256;52.236;5.712;2023-05-01T01:15:01;6.82;;;2.95;;
18259;SDS011;9256;52.236;5.712;2023-05-01T01:17:37;7.93;;;3.15;;
18259;SDS011;9256;52.236;5.712;2023-05-01T01:20:14;5.90;;;2.70;;
18259;SDS011;9256;52.236;5.712;2023-05-01T01:22:51;7.55;;;3.15;;
18259;SDS011;9256;52.236;5.712;2023-05-01T01:25:37;7.60;;;3.55;;
18259;SDS011;9256;52.236;5.712;2023-05-01T01:28:33;6.45;;;2.83;;
18259;SDS011;9256;52.236;5.712;2023-05-01T01:31:19;7.15;;;3.13;;
18259;SDS011;9256;52.236;5.712;2023-05-01T01:33:49;8.52;;;3.25;;
18259;SDS011;9256;52.236;5.712;2023-05-01T01:36:23;6.60;;;3.03;;
18259;SDS011;9256;52.236;5.712;2023-05-01T01:39:02;8.05;;;3.00;;
18259;SDS011;9256;52.236;5.712;2023-05-01T01:41:34;7.70;;;3.33;;
18259;SDS011;9256;52.236;5.712;2023-05-01T01:44:05;7.68;;;3.45;;
18259;SDS011;9256;52.236;5.712;2023-05-01T01:46:36;10.00;;;3.50;;
18259;SDS011;9256;52.236;5.712;2023-05-01T01:49:08;6.75;;;3.05;;
18259;SDS011;9256;52.236;5.712;2023-05-01T01:51:40;6.80;;;3.13;;
18259;SDS011;9256;52.236;5.712;2023-05-01T01:54:09;8.20;;;2.85;;
18259;SDS011;9256;52.236;5.712;2023-05-01T01:56:38;8.85;;;3.15;;
18259;SDS011;9256;52.236;5.712;2023-05-01T01:59:07;7.75;;;2.92;;
18259;SDS011;9256;52.236;5.712;2023-05-01T02:01:36;8.57;;;3.45;;
18259;SDS011;9256;52.236;5.712;2023-05-01T02:04:06;8.65;;;3.33;;
18259;SDS011;9256;52.236;5.712;2023-05-01T02:06:35;8.93;;;3.33;;
18259;SDS011;9256;52.236;5.712;2023-05-01T02:09:04;8.70;;;3.10;;
18259;SDS011;9256;52.236;5.712;2023-05-01T02:11:33;8.73;;;3.17;;
18259;SDS011;9256;52.236;5.712;2023-05-01T02:14:02;10.25;;;3.30;;
18259;SDS011;9256;52.236;5.712;2023-05-01T02:16:31;11.02;;;3.20;;
18259;SDS011;9256;52.236;5.712;2023-05-01T02:18:59;10.35;;;3.05;;
18259;SDS011;9256;52.236;5.712;2023-05-01T02:21:30;9.07;;;3.38;;
18259;SDS011;9256;52.236;5.712;2023-05-01T02:23:58;8.38;;;3.00;;
18259;SDS011;9256;52.236;5.712;2023-05-01T02:26:27;8.55;;;3.17;;
18259;SDS011;9256;52.236;5.712;2023-05-01T02:28:55;11.57;;;3.30;;
18259;SDS011;9256;52.236;5.712;2023-05-01T02:31:23;7.47;;;3.50;;
18259;SDS011;9256;52.236;5.712;2023-05-01T02:33:50;10.50;;;3.53;;
18259;SDS011;9256;52.236;5.712;2023-05-01T02:36:17;7.45;;;3.28;;
18259;SDS011;9256;52.236;5.712;2023-05-01T02:38:45;8.95;;;3.25;;
18259;SDS011;9256;52.236;5.712;2023-05-01T02:41:15;8.27;;;3.33;;
18259;SDS011;9256;52.236;5.712;2023-05-01T02:43:43;7.60;;;3.40;;
18259;SDS011;9256;52.236;5.712;2023-05-01T02:46:12;8.27;;;3.55;;
18259;SDS011;9256;52.236;5.712;2023-05-01T02:48:41;13.40;;;3.60;;
18259;SDS011;9256;52.236;5.712;2023-05-01T02:51:09;10.70;;;4.13;;
18259;SDS011;9256;52.236;5.712;2023-05-01T02:53:37;9.07;;;3.47;;
18259;SDS011;9256;52.236;5.712;2023-05-01T02:56:06;12.98;;;3.58;;
18259;SDS011;9256;52.236;5.712;2023-05-01T02:58:34;10.10;;;4.22;;
18259;SDS011;9256;52.236;5.712;2023-05-01T03:01:01;9.50;;;4.00;;
18259;SDS011;9256;52.236;5.712;2023-05-01T03:03:28;7.80;;;3.80;;
18259;SDS011;9256;52.236;5.712;2023-05-01T03:05:55;7.35;;;3.50;;
18259;SDS011;9256;52.236;5.712;2023-05-01T03:08:22;10.30;;;4.18;;
18259;SDS011;9256;52.236;5.712;2023-05-01T03:10:49;7.38;;;3.38;;
18259;SDS011;9256;52.236;5.712;2023-05-01T03:13:17;7.78;;;3.25;;
18259;SDS011;9256;52.236;5.712;2023-05-01T03:15:45;9.45;;;3.50;;
18259;SDS011;9256;52.236;5.712;2023-05-01T03:18:12;10.80;;;3.35;;
18259;SDS011;9256;52.236;5.712;2023-05-01T03:20:39;7.05;;;2.88;;
18259;SDS011;9256;52.236;5.712;2023-05-01T03:23:06;10.40;;;4.18;;
18259;SDS011;9256;52.236;5.712;2023-05-01T03:25:34;9.38;;;3.47;;
18259;SDS011;9256;52.236;5.712;2023-05-01T03:28:02;8.07;;;3.38;;
18259;SDS011;9256;52.236;5.712;2023-05-01T03:30:33;8.38;;;3.40;;
18259;SDS011;9256;52.236;5.712;2023-05-01T03:33:00;8.23;;;3.58;;
18259;SDS011;9256;52.236;5.712;2023-05-01T03:35:27;8.30;;;3.17;;
18259;SDS011;9256;52.236;5.712;2023-05-01T03:37:54;9.05;;;3.50;;
18259;SDS011;9256;52.236;5.712;2023-05-01T03:40:21;7.63;;;3.50;;
18259;SDS011;9256;52.236;5.712;2023-05-01T03:42:48;8.65;;;3.58;;
18259;SDS011;9256;52.236;5.712;2023-05-01T03:45:14;11.60;;;3.65;;
18259;SDS011;9256;52.236;5.712;2023-05-01T03:47:43;8.23;;;3.30;;
18259;SDS011;9256;52.236;5.712;2023-05-01T03:50:10;12.13;;;3.78;;
18259;SDS011;9256;52.236;5.712;2023-05-01T03:52:38;11.23;;;3.42;;
18259;SDS011;9256;52.236;5.712;2023-05-01T03:55:05;8.38;;;3.40;;
18259;SDS011;9256;52.236;5.712;2023-05-01T03:57:33;9.23;;;3.67;;
18259;SDS011;9256;52.236;5.712;2023-05-01T04:00:01;9.77;;;3.33;;
18259;SDS011;9256;52.236;5.712;2023-05-01T04:02:29;11.65;;;3.50;;
18259;SDS011;9256;52.236;5.712;2023-05-01T04:04:57;10.45;;;3.45;;
18259;SDS011;9256;52.236;5.712;2023-05-01T04:07:24;11.20;;;3.72;;
18259;SDS011;9256;52.236;5.712;2023-05-01T04:09:51;12.05;;;3.42;;
18259;SDS011;9256;52.236;5.712;2023-05-01T04:12:18;8.80;;;3.90;;
18259;SDS011;9256;52.236;5.712;2023-05-01T04:14:45;9.88;;;3.90;;
18259;SDS011;9256;52.236;5.712;2023-05-01T04:17:12;7.00;;;3.10;;
18259;SDS011;9256;52.236;5.712;2023-05-01T04:19:39;8.85;;;3.75;;
18259;SDS011;9256;52.236;5.712;2023-05-01T04:22:08;9.82;;;3.33;;
18259;SDS011;9256;52.236;5.712;2023-05-01T04:24:34;12.85;;;3.83;;
18259;SDS011;9256;52.236;5.712;2023-05-01T04:27:01;9.88;;;3.40;;
18259;SDS011;9256;52.236;5.712;2023-05-01T04:29:29;9.48;;;3.38;;
18259;SDS011;9256;52.236;5.712;2023-05-01T04:31:56;9.25;;;3.08;;
18259;SDS011;9256;52.236;5.712;2023-05-01T04:34:23;11.75;;;3.83;;
18259;SDS011;9256;52.236;5.712;2023-05-01T04:36:53;9.95;;;3.70;;
18259;SDS011;9256;52.236;5.712;2023-05-01T04:39:22;9.45;;;3.63;;
18259;SDS011;9256;52.236;5.712;2023-05-01T04:41:49;11.07;;;3.80;;
18259;SDS011;9256;52.236;5.712;2023-05-01T04:44:16;9.68;;;3.50;;
18259;SDS011;9256;52.236;5.712;2023-05-01T04:46:43;9.43;;;3.63;;
18259;SDS011;9256;52.236;5.712;2023-05-01T04:49:10;9.25;;;3.35;;
18259;SDS011;9256;52.236;5.712;2023-05-01T04:51:37;8.43;;;3.38;;
18259;SDS011;9256;52.236;5.712;2023-05-01T04:54:04;7.57;;;3.53;;
18259;SDS011;9256;52.236;5.712;2023-05-01T04:56:32;11.30;;;3.70;;
18259;SDS011;9256;52.236;5.712;2023-05-01T04:58:59;10.50;;;4.32;;
18259;SDS011;9256;52.236;5.712;2023-05-01T05:01:27;11.65;;;3.58;;
18259;SDS011;9256;52.236;5.712;2023-05-01T05:03:53;9.07;;;3.58;;
18259;SDS011;9256;52.236;5.712;2023-05-01T05:06:20;8.02;;;3.50;;
18259;SDS011;9256;52.236;5.712;2023-05-01T05:08:47;16.38;;;3.78;;
18259;SDS011;9256;52.236;5.712;2023-05-01T05:11:16;10.38;;;4.00;;
18259;SDS011;9256;52.236;5.712;2023-05-01T05:13:44;9.85;;;3.70;;
18259;SDS011;9256;52.236;5.712;2023-05-01T05:16:11;10.15;;;3.40;;
18259;SDS011;9256;52.236;5.712;2023-05-01T05:18:39;10.73;;;4.70;;
18259;SDS011;9256;52.236;5.712;2023-05-01T05:21:06;12.32;;;3.88;;
18259;SDS011;9256;52.236;5.712;2023-05-01T05:23:34;9.43;;;3.38;;
18259;SDS011;9256;52.236;5.712;2023-05-01T05:26:02;11.52;;;3.47;;
18259;SDS011;9256;52.236;5.712;2023-05-01T05:28:29;9.15;;;3.92;;
18259;SDS011;9256;52.236;5.712;2023-05-01T05:30:58;7.53;;;3.20;;
18259;SDS011;9256;52.236;5.712;2023-05-01T05:33:25;9.00;;;3.40;;
18259;SDS011;9256;52.236;5.712;2023-05-01T05:35:52;10.93;;;3.47;;
18259;SDS011;9256;52.236;5.712;2023-05-01T05:38:19;11.85;;;3.15;;
18259;SDS011;9256;52.236;5.712;2023-05-01T05:40:46;10.93;;;3.20;;
18259;SDS011;9256;52.236;5.712;2023-05-01T05:43:13;7.57;;;3.63;;
18259;SDS011;9256;52.236;5.712;2023-05-01T05:45:40;7.53;;;3.30;;
18259;SDS011;9256;52.236;5.712;2023-05-01T05:48:08;9.15;;;3.40;;
18259;SDS011;9256;52.236;5.712;2023-05-01T05:50:35;11.20;;;3.60;;
18259;SDS011;9256;52.236;5.712;2023-05-01T05:53:02;10.10;;;4.10;;
18259;SDS011;9256;52.236;5.712;2023-05-01T05:55:29;9.30;;;3.30;;
18259;SDS011;9256;52.236;5.712;2023-05-01T05:57:56;8.07;;;3.47;;
18259;SDS011;9256;52.236;5.712;2023-05-01T06:00:23;8.07;;;3.28;;
18259;SDS011;9256;52.236;5.712;2023-05-01T06:02:49;8.82;;;3.67;;
18259;SDS011;9256;52.236;5.712;2023-05-01T06:05:18;6.85;;;3.00;;
18259;SDS011;9256;52.236;5.712;2023-05-01T06:07:45;9.60;;;3.47;;
18259;SDS011;9256;52.236;5.712;2023-05-01T06:10:12;7.57;;;2.95;;
18259;SDS011;9256;52.236;5.712;2023-05-01T06:12:39;9.80;;;3.30;;
18259;SDS011;9256;52.236;5.712;2023-05-01T06:15:06;9.05;;;3.20;;
18259;SDS011;9256;52.236;5.712;2023-05-01T06:17:34;10.23;;;3.28;;
18259;SDS011;9256;52.236;5.712;2023-05-01T06:20:01;7.35;;;3.30;;
18259;SDS011;9256;52.236;5.712;2023-05-01T06:22:31;10.55;;;3.40;;
18259;SDS011;9256;52.236;5.712;2023-05-01T06:24:58;9.18;;;3.08;;
18259;SDS011;9256;52.236;5.712;2023-05-01T06:27:26;7.82;;;3.20;;
18259;SDS011;9256;52.236;5.712;2023-05-01T06:29:53;11.82;;;3.53;;
18259;SDS011;9256;52.236;5.712;2023-05-01T06:32:20;9.52;;;3.30;;
18259;SDS011;9256;52.236;5.712;2023-05-01T06:34:47;12.02;;;3.40;;
18259;SDS011;9256;52.236;5.712;2023-05-01T06:37:14;11.65;;;3.75;;
18259;SDS011;9256;52.236;5.712;2023-05-01T06:39:42;8.50;;;3.25;;
18259;SDS011;9256;52.236;5.712;2023-05-01T06:42:09;9.75;;;3.92;;
18259;SDS011;9256;52.236;5.712;2023-05-01T06:44:40;8.43;;;3.42;;
18259;SDS011;9256;52.236;5.712;2023-05-01T06:47:06;10.82;;;3.67;;
18259;SDS011;9256;52.236;5.712;2023-05-01T06:49:33;9.63;;;3.50;;
18259;SDS011;9256;52.236;5.712;2023-05-01T06:52:00;8.18;;;3.45;;
18259;SDS011;9256;52.236;5.712;2023-05-01T06:54:27;8.15;;;3.63;;
18259;SDS011;9256;52.236;5.712;2023-05-01T06:56:56;10.27;;;4.03;;
18259;SDS011;9256;52.236;5.712;2023-05-01T06:59:23;8.77;;;3.67;;
18259;SDS011;9256;52.236;5.712;2023-05-01T07:01:50;9.05;;;3.88;;
18259;SDS011;9256;52.236;5.712;2023-05-01T07:04:17;10.75;;;3.42;;
18259;SDS011;9256;52.236;5.712;2023-05-01T07:06:45;7.30;;;3.50;;
18259;SDS011;9256;52.236;5.712;2023-05-01T07:09:12;10.23;;;3.50;;
18259;SDS011;9256;52.236;5.712;2023-05-01T07:11:39;9.23;;;3.58;;
18259;SDS011;9256;52.236;5.712;2023-05-01T07:14:08;10.68;;;3.40;;
18259;SDS011;9256;52.236;5.712;2023-05-01T07:16:35;7.22;;;3.30;;
18259;SDS011;9256;52.236;5.712;2023-05-01T07:19:01;9.48;;;3.80;;
18259;SDS011;9256;52.236;5.712;2023-05-01T07:21:28;8.82;;;3.83;;
18259;SDS011;9256;52.236;5.712;2023-05-01T07:23:56;8.90;;;4.00;;
18259;SDS011;9256;52.236;5.712;2023-05-01T07:26:23;8.20;;;3.53;;
18259;SDS011;9256;52.236;5.712;2023-05-01T07:28:51;9.00;;;3.63;;
18259;SDS011;9256;52.236;5.712;2023-05-01T07:31:19;12.02;;;3.60;;
18259;SDS011;9256;52.236;5.712;2023-05-01T07:33:46;12.38;;;3.50;;
18259;SDS011;9256;52.236;5.712;2023-05-01T07:36:13;9.50;;;3.45;;
18259;SDS011;9256;52.236;5.712;2023-05-01T07:38:42;10.88;;;3.63;;
18259;SDS011;9256;52.236;5.712;2023-05-01T07:41:09;10.20;;;3.65;;
18259;SDS011;9256;52.236;5.712;2023-05-01T07:43:36;7.90;;;3.13;;
18259;SDS011;9256;52.236;5.712;2023-05-01T07:46:03;8.55;;;3.65;;
18259;SDS011;9256;52.236;5.712;2023-05-01T07:48:32;9.45;;;3.50;;
18259;SDS011;9256;52.236;5.712;2023-05-01T07:51:00;10.77;;;3.30;;
18259;SDS011;9256;52.236;5.712;2023-05-01T07:53:27;7.70;;;3.15;;
18259;SDS011;9256;52.236;5.712;2023-05-01T07:56:03;8.85;;;3.33;;
18259;SDS011;9256;52.236;5.712;2023-05-01T07:58:31;7.85;;;3.40;;
18259;SDS011;9256;52.236;5.712;2023-05-01T08:00:58;6.60;;;2.83;;
18259;SDS011;9256;52.236;5.712;2023-05-01T08:03:26;8.75;;;3.20;;
18259;SDS011;9256;52.236;5.712;2023-05-01T08:05:55;7.82;;;3.00;;
18259;SDS011;9256;52.236;5.712;2023-05-01T08:08:22;6.22;;;3.08;;
18259;SDS011;9256;52.236;5.712;2023-05-01T08:10:50;6.45;;;2.80;;
18259;SDS011;9256;52.236;5.712;2023-05-01T08:13:17;11.55;;;2.92;;
18259;SDS011;9256;52.236;5.712;2023-05-01T08:15:44;7.93;;;3.15;;
18259;SDS011;9256;52.236;5.712;2023-05-01T08:18:12;7.65;;;3.10;;
18259;SDS011;9256;52.236;5.712;2023-05-01T08:20:43;7.85;;;3.20;;
18259;SDS011;9256;52.236;5.712;2023-05-01T08:23:13;6.88;;;2.90;;
18259;SDS011;9256;52.236;5.712;2023-05-01T08:25:40;6.10;;;2.88;;
18259;SDS011;9256;52.236;5.712;2023-05-01T08:28:07;7.70;;;3.05;;
18259;SDS011;9256;52.236;5.712;2023-05-01T08:30:34;8.00;;;2.90;;
18259;SDS011;9256;52.236;5.712;2023-05-01T08:33:01;9.75;;;3.55;;
18259;SDS011;9256;52.236;5.712;2023-05-01T08:35:28;8.10;;;2.90;;
18259;SDS011;9256;52.236;5.712;2023-05-01T08:37:55;6.47;;;3.17;;
18259;SDS011;9256;52.236;5.712;2023-05-01T08:40:24;8.43;;;2.90;;
18259;SDS011;9256;52.236;5.712;2023-05-01T08:42:51;8.90;;;3.40;;
18259;SDS011;9256;52.236;5.712;2023-05-01T08:45:20;7.97;;;2.90;;
18259;SDS011;9256;52.236;5.712;2023-05-01T08:47:49;10.40;;;3.33;;
18259;SDS011;9256;52.236;5.712;2023-05-01T08:50:17;7.30;;;2.80;;
18259;SDS011;9256;52.236;5.712;2023-05-01T08:52:45;6.75;;;3.20;;
18259;SDS011;9256;52.236;5.712;2023-05-01T08:55:13;8.45;;;3.17;;
18259;SDS011;9256;52.236;5.712;2023-05-01T08:57:44;6.15;;;2.60;;
18259;SDS011;9256;52.236;5.712;2023-05-01T09:00:13;8.48;;;2.88;;
18259;SDS011;9256;52.236;5.712;2023-05-01T09:02:43;8.80;;;2.50;;
18259;SDS011;9256;52.236;5.712;2023-05-01T09:05:12;8.45;;;3.00;;
18259;SDS011;9256;52.236;5.712;2023-05-01T09:07:41;9.27;;;3.35;;
18259;SDS011;9256;52.236;5.712;2023-05-01T09:10:10;11.60;;;3.05;;
18259;SDS011;9256;52.236;5.712;2023-05-01T09:12:38;6.78;;;2.80;;
18259;SDS011;9256;52.236;5.712;2023-05-01T09:15:07;8.23;;;3.00;;
18259;SDS011;9256;52.236;5.712;2023-05-01T09:17:36;8.52;;;3.17;;
18259;SDS011;9256;52.236;5.712;2023-05-01T09:20:03;5.18;;;2.72;;
18259;SDS011;9256;52.236;5.712;2023-05-01T09:22:31;9.75;;;2.78;;
18259;SDS011;9256;52.236;5.712;2023-05-01T09:25:00;6.47;;;3.05;;
18259;SDS011;9256;52.236;5.712;2023-05-01T09:27:28;7.47;;;3.13;;
18259;SDS011;9256;52.236;5.712;2023-05-01T09:29:59;10.30;;;3.00;;
18259;SDS011;9256;52.236;5.712;2023-05-01T09:32:27;8.10;;;3.20;;
18259;SDS011;9256;52.236;5.712;2023-05-01T09:34:55;9.55;;;3.00;;
18259;SDS011;9256;52.236;5.712;2023-05-01T09:37:34;7.43;;;2.72;;
18259;SDS011;9256;52.236;5.712;2023-05-01T09:40:03;5.55;;;2.70;;
18259;SDS011;9256;52.236;5.712;2023-05-01T09:42:34;7.15;;;2.85;;
18259;SDS011;9256;52.236;5.712;2023-05-01T09:45:03;8.20;;;2.78;;
18259;SDS011;9256;52.236;5.712;2023-05-01T09:47:33;8.48;;;2.97;;
18259;SDS011;9256;52.236;5.712;2023-05-01T09:50:00;5.40;;;2.60;;
18259;SDS011;9256;52.236;5.712;2023-05-01T09:52:28;8.32;;;2.97;;
18259;SDS011;9256;52.236;5.712;2023-05-01T09:57:40;7.60;;;2.70;;
18259;SDS011;9256;52.236;5.712;2023-05-01T10:00:08;11.18;;;2.95;;
18259;SDS011;9256;52.236;5.712;2023-05-01T10:02:38;8.97;;;3.00;;
18259;SDS011;9256;52.236;5.712;2023-05-01T10:05:07;8.60;;;3.20;;
18259;SDS011;9256;52.236;5.712;2023-05-01T10:07:35;9.25;;;2.60;;
18259;SDS011;9256;52.236;5.712;2023-05-01T10:10:15;9.35;;;2.60;;
18259;SDS011;9256;52.236;5.712;2023-05-01T10:12:43;5.43;;;1.98;;
18259;SDS011;9256;52.236;5.712;2023-05-01T10:15:10;6.75;;;2.10;;
18259;SDS011;9256;52.236;5.712;2023-05-01T10:17:39;6.32;;;1.88;;
18259;SDS011;9256;52.236;5.712;2023-05-01T10:20:07;6.60;;;2.08;;
18259;SDS011;9256;52.236;5.712;2023-05-01T10:22:36;4.60;;;1.90;;
18259;SDS011;9256;52.236;5.712;2023-05-01T10:25:05;6.60;;;2.20;;
18259;SDS011;9256;52.236;5.712;2023-05-01T10:27:33;8.13;;;2.30;;
18259;SDS011;9256;52.236;5.712;2023-05-01T10:30:03;4.90;;;1.95;;
18259;SDS011;9256;52.236;5.712;2023-05-01T10:32:31;5.90;;;2.10;;
18259;SDS011;9256;52.236;5.712;2023-05-01T10:35:03;3.05;;;1.70;;
18259;SDS011;9256;52.236;5.712;2023-05-01T10:37:37;7.75;;;1.52;;
18259;SDS011;9256;52.236;5.712;2023-05-01T10:43:12;6.07;;;1.65;;
18259;SDS011;9256;52.236;5.712;2023-05-01T10:45:50;5.85;;;1.63;;
18259;SDS011;9256;52.236;5.712;2023-05-01T10:51:21;6.43;;;1.50;;
18259;SDS011;9256;52.236;5.712;2023-05-01T10:54:20;5.00;;;1.35;;
18259;SDS011;9256;52.236;5.712;2023-05-01T10:56:51;4.20;;;1.50;;
18259;SDS011;9256;52.236;5.712;2023-05-01T10:59:19;6.18;;;1.40;;
18259;SDS011;9256;52.236;5.712;2023-05-01T11:01:50;4.72;;;1.40;;
18259;SDS011;9256;52.236;5.712;2023-05-01T11:07:17;3.05;;;1.30;;
18259;SDS011;9256;52.236;5.712;2023-05-01T11:09:44;4.30;;;1.60;;
18259;SDS011;9256;52.236;5.712;2023-05-01T11:12:13;7.70;;;1.75;;
18259;SDS011;9256;52.236;5.712;2023-05-01T11:15:00;8.43;;;1.60;;
18259;SDS011;9256;52.236;5.712;2023-05-01T11:17:45;6.43;;;1.50;;
18259;SDS011;9256;52.236;5.712;2023-05-01T11:23:19;5.55;;;1.73;;
18259;SDS011;9256;52.236;5.712;2023-05-01T11:25:47;5.00;;;1.30;;
18259;SDS011;9256;52.236;5.712;2023-05-01T11:28:19;2.60;;;1.25;;
18259;SDS011;9256;52.236;5.712;2023-05-01T11:30:48;5.38;;;1.30;;
18259;SDS011;9256;52.236;5.712;2023-05-01T11:33:22;4.72;;;1.40;;
18259;SDS011;9256;52.236;5.712;2023-05-01T11:35:59;4.10;;;1.30;;
18259;SDS011;9256;52.236;5.712;2023-05-01T11:38:29;5.60;;;1.50;;
18259;SDS011;9256;52.236;5.712;2023-05-01T11:40:58;2.35;;;1.08;;
18259;SDS011;9256;52.236;5.712;2023-05-01T11:43:26;4.13;;;1.67;;
18259;SDS011;9256;52.236;5.712;2023-05-01T11:45:53;3.67;;;1.30;;
18259;SDS011;9256;52.236;5.712;2023-05-01T11:48:27;3.40;;;1.20;;
18259;SDS011;9256;52.236;5.712;2023-05-01T11:50:55;4.78;;;0.98;;
18259;SDS011;9256;52.236;5.712;2023-05-01T11:53:21;3.47;;;1.17;;
18259;SDS011;9256;52.236;5.712;2023-05-01T11:55:50;5.60;;;1.30;;
18259;SDS011;9256;52.236;5.712;2023-05-01T11:58:17;3.28;;;1.23;;
18259;SDS011;9256;52.236;5.712;2023-05-01T12:00:55;5.43;;;1.73;;
18259;SDS011;9256;52.236;5.712;2023-05-01T12:03:23;4.43;;;1.10;;
18259;SDS011;9256;52.236;5.712;2023-05-01T12:05:50;2.72;;;1.20;;
18259;SDS011;9256;52.236;5.712;2023-05-01T12:08:17;3.78;;;1.48;;
18259;SDS011;9256;52.236;5.712;2023-05-01T12:10:46;1.80;;;0.90;;
18259;SDS011;9256;52.236;5.712;2023-05-01T12:13:15;1.92;;;0.70;;
18259;SDS011;9256;52.236;5.712;2023-05-01T12:15:44;5.28;;;1.52;;
18259;SDS011;9256;52.236;5.712;2023-05-01T12:18:12;3.58;;;1.75;;
18259;SDS011;9256;52.236;5.712;2023-05-01T12:20:40;3.95;;;1.73;;
18259;SDS011;9256;52.236;5.712;2023-05-01T12:23:09;7.88;;;2.63;;
18259;SDS011;9256;52.236;5.712;2023-05-01T12:25:38;7.15;;;2.42;;
18259;SDS011;9256;52.236;5.712;2023-05-01T12:28:07;5.68;;;2.80;;
18259;SDS011;9256;52.236;5.712;2023-05-01T12:30:36;8.73;;;3.17;;
18259;SDS011;9256;52.236;5.712;2023-05-01T12:33:07;9.45;;;3.58;;
18259;SDS011;9256;52.236;5.712;2023-05-01T12:35:36;7.47;;;3.17;;
18259;SDS011;9256;52.236;5.712;2023-05-01T12:38:10;5.00;;;2.70;;
18259;SDS011;9256;52.236;5.712;2023-05-01T12:40:39;8.98;;;2.90;;
18259;SDS011;9256;52.236;5.712;2023-05-01T12:43:16;6.05;;;2.65;;
18259;SDS011;9256;52.236;5.712;2023-05-01T12:45:45;6.32;;;2.90;;
18259;SDS011;9256;52.236;5.712;2023-05-01T12:48:16;9.02;;;3.40;;
18259;SDS011;9256;52.236;5.712;2023-05-01T12:50:44;7.40;;;2.58;;
18259;SDS011;9256;52.236;5.712;2023-05-01T12:53:18;6.00;;;2.38;;
18259;SDS011;9256;52.236;5.712;2023-05-01T12:55:46;8.05;;;3.58;;
18259;SDS011;9256;52.236;5.712;2023-05-01T12:58:14;8.75;;;3.15;;
18259;SDS011;9256;52.236;5.712;2023-05-01T13:00:46;7.40;;;2.60;;
18259;SDS011;9256;52.236;5.712;2023-05-01T13:03:14;9.98;;;2.30;;
18259;SDS011;9256;52.236;5.712;2023-05-01T13:05:54;6.85;;;2.10;;
18259;SDS011;9256;52.236;5.712;2023-05-01T13:08:25;5.32;;;1.95;;
18259;SDS011;9256;52.236;5.712;2023-05-01T13:10:54;3.13;;;1.50;;
18259;SDS011;9256;52.236;5.712;2023-05-01T13:13:26;4.03;;;1.65;;
18259;SDS011;9256;52.236;5.712;2023-05-01T13:16:06;4.07;;;1.60;;
18259;SDS011;9256;52.236;5.712;2023-05-01T13:18:42;6.68;;;1.45;;
18259;SDS011;9256;52.236;5.712;2023-05-01T13:21:11;4.63;;;1.63;;
18259;SDS011;9256;52.236;5.712;2023-05-01T13:23:40;6.50;;;1.70;;
18259;SDS011;9256;52.236;5.712;2023-05-01T13:26:08;4.32;;;1.73;;
18259;SDS011;9256;52.236;5.712;2023-05-01T13:28:40;6.97;;;1.77;;
18259;SDS011;9256;52.236;5.712;2023-05-01T13:31:12;5.20;;;1.70;;
18259;SDS011;9256;52.236;5.712;2023-05-01T13:33:40;6.10;;;1.70;;
18259;SDS011;9256;52.236;5.712;2023-05-01T13:36:08;3.95;;;1.83;;
18259;SDS011;9256;52.236;5.712;2023-05-01T13:38:40;4.80;;;1.90;;
18259;SDS011;9256;52.236;5.712;2023-05-01T13:41:13;6.65;;;1.85;;
18259;SDS011;9256;52.236;5.712;2023-05-01T13:43:41;12.95;;;4.78;;
18259;SDS011;9256;52.236;5.712;2023-05-01T13:46:09;10.02;;;4.13;;
18259;SDS011;9256;52.236;5.712;2023-05-01T13:48:39;28.40;;;10.00;;
18259;SDS011;9256;52.236;5.712;2023-05-01T13:51:06;6.85;;;2.38;;
18259;SDS011;9256;52.236;5.712;2023-05-01T13:53:33;7.97;;;2.60;;
18259;SDS011;9256;52.236;5.712;2023-05-01T13:56:02;7.75;;;2.28;;
18259;SDS011;9256;52.236;5.712;2023-05-01T13:58:29;7.05;;;2.85;;
18259;SDS011;9256;52.236;5.712;2023-05-01T14:00:57;9.30;;;2.92;;
18259;SDS011;9256;52.236;5.712;2023-05-01T14:03:24;4.45;;;2.38;;
18259;SDS011;9256;52.236;5.712;2023-05-01T14:05:52;6.95;;;2.58;;
18259;SDS011;9256;52.236;5.712;2023-05-01T14:08:19;6.57;;;2.80;;
18259;SDS011;9256;52.236;5.712;2023-05-01T14:10:48;9.43;;;3.20;;
18259;SDS011;9256;52.236;5.712;2023-05-01T14:13:15;8.80;;;2.83;;
18259;SDS011;9256;52.236;5.712;2023-05-01T14:15:43;6.78;;;2.88;;
18259;SDS011;9256;52.236;5.712;2023-05-01T14:18:10;10.30;;;3.25;;
18259;SDS011;9256;52.236;5.712;2023-05-01T14:20:41;9.68;;;3.60;;
18259;SDS011;9256;52.236;5.712;2023-05-01T14:23:12;9.52;;;3.53;;
18259;SDS011;9256;52.236;5.712;2023-05-01T14:25:40;7.70;;;3.42;;
18259;SDS011;9256;52.236;5.712;2023-05-01T14:28:13;8.90;;;3.80;;
18259;SDS011;9256;52.236;5.712;2023-05-01T14:30:42;12.23;;;3.80;;
18259;SDS011;9256;52.236;5.712;2023-05-01T14:33:10;8.32;;;3.75;;
18259;SDS011;9256;52.236;5.712;2023-05-01T14:35:41;8.27;;;3.53;;
18259;SDS011;9256;52.236;5.712;2023-05-01T14:38:15;7.63;;;3.13;;
18259;SDS011;9256;52.236;5.712;2023-05-01T14:40:44;7.85;;;2.97;;
18259;SDS011;9256;52.236;5.712;2023-05-01T14:43:12;8.85;;;3.40;;
18259;SDS011;9256;52.236;5.712;2023-05-01T14:45:41;8.82;;;3.20;;
18259;SDS011;9256;52.236;5.712;2023-05-01T14:48:10;8.10;;;3.60;;
18259;SDS011;9256;52.236;5.712;2023-05-01T14:50:45;6.43;;;3.10;;
18259;SDS011;9256;52.236;5.712;2023-05-01T14:53:12;8.05;;;3.60;;
18259;SDS011;9256;52.236;5.712;2023-05-01T14:55:40;7.75;;;3.10;;
18259;SDS011;9256;52.236;5.712;2023-05-01T14:58:07;7.70;;;2.95;;
18259;SDS011;9256;52.236;5.712;2023-05-01T15:00:34;8.07;;;3.28;;
18259;SDS011;9256;52.236;5.712;2023-05-01T15:03:01;11.27;;;3.53;;
18259;SDS011;9256;52.236;5.712;2023-05-01T15:05:28;6.40;;;3.50;;
18259;SDS011;9256;52.236;5.712;2023-05-01T15:07:56;9.77;;;4.13;;
18259;SDS011;9256;52.236;5.712;2023-05-01T15:10:25;11.38;;;4.63;;
18259;SDS011;9256;52.236;5.712;2023-05-01T15:12:54;17.15;;;7.15;;
18259;SDS011;9256;52.236;5.712;2023-05-01T15:15:21;13.93;;;4.82;;
18259;SDS011;9256;52.236;5.712;2023-05-01T15:17:48;16.98;;;7.10;;
18259;SDS011;9256;52.236;5.712;2023-05-01T15:20:15;8.90;;;4.25;;
18259;SDS011;9256;52.236;5.712;2023-05-01T15:22:42;13.23;;;5.93;;